createdAt,value
2022-08-08T00:00:56.012Z,22.30
2022-08-08T00:03:32.045Z,22.20
2022-08-08T00:06:28.257Z,22.10
2022-08-08T00:09:34.261Z,22.20
2022-08-08T00:12:10.498Z,22.30
2022-08-08T00:15:06.261Z,22.30
2022-08-08T00:18:16.222Z,22.30
2022-08-08T00:20:53.078Z,22.20
2022-08-08T00:23:43.393Z,22.20
2022-08-08T00:26:38.595Z,22.10
2022-08-08T00:29:44.949Z,22.10
2022-08-08T00:32:34.930Z,21.90
2022-08-08T00:35:25.727Z,22.00
2022-08-08T00:38:32.298Z,22.00
2022-08-08T00:41:22.085Z,22.20
2022-08-08T00:44:24.631Z,22.10
2022-08-08T00:47:14.228Z,22.10
2022-08-08T00:50:07.953Z,22.00
2022-08-08T00:53:01.247Z,21.90
2022-08-08T00:55:52.967Z,22.00
2022-08-08T00:58:54.597Z,22.10
2022-08-08T01:03:27.363Z,22.20
2022-08-08T01:05:29.249Z,22.20
2022-08-08T01:08:50.204Z,22.10
2022-08-08T01:11:57.143Z,22.10
2022-08-08T01:14:57.388Z,22.10
2022-08-08T01:17:54.783Z,22.00
2022-08-08T01:20:46.737Z,21.80
2022-08-08T01:24:06.729Z,21.90
2022-08-08T01:27:24.138Z,21.90
2022-08-08T01:30:27.199Z,21.90
2022-08-08T01:33:54.408Z,21.80
2022-08-08T01:36:44.313Z,21.70
2022-08-08T01:39:53.766Z,21.70
2022-08-08T01:42:44.867Z,21.60
2022-08-08T01:45:16.989Z,21.60
2022-08-08T01:48:31.020Z,21.60
2022-08-08T01:51:48.984Z,21.80
2022-08-08T01:55:45.569Z,21.70
2022-08-08T01:57:26.171Z,21.50
2022-08-08T02:00:17.331Z,21.80
2022-08-08T02:02:57.926Z,21.90
2022-08-08T02:05:56.816Z,21.90
2022-08-08T02:08:47.241Z,21.80
2022-08-08T02:11:59.435Z,21.80
2022-08-08T02:14:33.402Z,21.90
2022-08-08T02:17:20.302Z,21.90
2022-08-08T02:20:09.170Z,22.00
2022-08-08T02:23:08.760Z,21.90
2022-08-08T02:26:08.117Z,21.90
2022-08-08T02:28:48.311Z,21.90
2022-08-08T02:31:58.112Z,21.80
2022-08-08T02:35:08.232Z,22.00
2022-08-08T02:37:57.062Z,22.00
2022-08-08T02:40:28.021Z,22.10
2022-08-08T02:44:38.225Z,22.00
2022-08-08T02:46:23.344Z,21.90
2022-08-08T02:49:47.304Z,21.90
2022-08-08T02:52:38.300Z,21.80
2022-08-08T02:55:31.805Z,21.70
2022-08-08T02:58:42.137Z,21.60
2022-08-08T03:01:27.855Z,21.60
2022-08-08T03:05:04.944Z,21.60
2022-08-08T03:07:41.144Z,21.80
2022-08-08T03:10:55.428Z,21.90
2022-08-08T03:16:00.048Z,21.90
2022-08-08T03:16:37.459Z,22.00
2022-08-08T03:19:19.907Z,21.90
2022-08-08T03:21:58.337Z,21.90
2022-08-08T03:24:28.893Z,21.90
2022-08-08T03:27:13.234Z,21.90
2022-08-08T03:29:56.144Z,22.00
2022-08-08T03:32:53.295Z,22.10
2022-08-08T03:35:33.084Z,22.00
2022-08-08T03:38:56.911Z,22.00
2022-08-08T03:40:54.549Z,22.00
2022-08-08T03:43:25.198Z,22.10
2022-08-08T03:46:09.025Z,22.20
2022-08-08T03:49:30.932Z,22.20
2022-08-08T03:51:47.029Z,22.40
2022-08-08T03:54:40.803Z,22.40
2022-08-08T03:58:33.454Z,22.30
2022-08-08T04:00:11.238Z,22.30
2022-08-08T04:02:53.965Z,22.30
2022-08-08T04:05:28.828Z,22.20
2022-08-08T04:08:01.986Z,22.20
2022-08-08T04:10:32.869Z,22.20
2022-08-08T04:13:17.105Z,22.10
2022-08-08T04:15:54.775Z,22.10
2022-08-08T04:18:41.953Z,22.10
2022-08-08T04:21:13.078Z,22.10
2022-08-08T04:24:05.593Z,22.20
2022-08-08T04:26:35.431Z,22.30
2022-08-08T04:29:16.445Z,22.30
2022-08-08T04:32:00.196Z,22.40
2022-08-08T04:34:32.274Z,22.40
2022-08-08T04:37:11.951Z,22.50
2022-08-08T04:40:04.792Z,22.60
2022-08-08T04:42:30.499Z,22.70
2022-08-08T04:45:01.028Z,22.70
2022-08-08T04:47:28.552Z,22.80
2022-08-08T04:50:01.001Z,22.80
2022-08-08T04:52:35.448Z,22.90
2022-08-08T04:55:08.154Z,23.10
2022-08-08T04:57:35.882Z,23.00
2022-08-08T05:00:05.813Z,23.00
2022-08-08T05:02:34.470Z,23.00
2022-08-08T05:05:03.463Z,23.20
2022-08-08T05:07:42.548Z,23.10
2022-08-08T05:10:13.164Z,23.20
2022-08-08T05:12:53.594Z,23.20
2022-08-08T05:16:48.341Z,23.20
2022-08-08T05:18:17.034Z,23.30
2022-08-08T05:20:48.543Z,23.50
2022-08-08T05:23:19.830Z,23.50
2022-08-08T05:25:49.634Z,23.60
2022-08-08T05:28:48.145Z,23.70
2022-08-08T05:31:19.109Z,23.80
2022-08-08T05:33:54.732Z,23.90
2022-08-08T05:36:28.123Z,24.10
2022-08-08T05:38:59.124Z,24.20
2022-08-08T05:41:28.050Z,24.20
2022-08-08T05:44:08.539Z,24.30
2022-08-08T05:46:37.939Z,24.60
2022-08-08T05:49:11.153Z,24.90
2022-08-08T05:51:49.242Z,25.40
2022-08-08T05:54:28.138Z,26.20
2022-08-08T05:57:15.713Z,28.20
2022-08-08T05:59:58.994Z,28.50
2022-08-08T06:03:04.257Z,27.90
2022-08-08T06:05:36.395Z,27.40
2022-08-08T06:08:33.593Z,27.10
2022-08-08T06:11:04.794Z,26.80
2022-08-08T06:13:36.292Z,26.70
2022-08-08T06:16:14.040Z,26.60
2022-08-08T06:19:05.254Z,26.60
2022-08-08T06:21:51.771Z,26.80
2022-08-08T06:24:36.073Z,27.60
2022-08-08T06:27:09.363Z,29.00
2022-08-08T06:30:00.932Z,28.40
2022-08-08T06:32:47.812Z,28.10
2022-08-08T06:36:06.773Z,28.20
2022-08-08T06:38:12.337Z,28.40
2022-08-08T06:40:53.515Z,29.20
2022-08-08T06:43:28.663Z,30.30
2022-08-08T06:46:04.983Z,30.90
2022-08-08T06:48:38.320Z,31.30
2022-08-08T06:51:07.554Z,31.10
2022-08-08T06:53:39.600Z,30.50
2022-08-08T06:56:11.495Z,30.20
2022-08-08T06:58:44.026Z,30.50
2022-08-08T07:02:16.998Z,31.00
2022-08-08T07:04:39.755Z,30.80
2022-08-08T07:07:12.341Z,30.50
2022-08-08T07:10:08.134Z,31.00
2022-08-08T07:12:47.956Z,30.90
2022-08-08T07:16:04.863Z,31.00
2022-08-08T07:19:09.191Z,30.90
2022-08-08T07:22:18.310Z,30.70
2022-08-08T07:25:01.671Z,30.90
2022-08-08T07:27:47.428Z,30.90
2022-08-08T07:30:26.565Z,31.20
2022-08-08T07:32:59.237Z,31.00
2022-08-08T07:35:29.309Z,30.60
2022-08-08T07:38:10.281Z,30.40
2022-08-08T07:41:04.411Z,30.30
2022-08-08T07:43:37.079Z,30.10
2022-08-08T07:46:23.215Z,30.10
2022-08-08T07:48:54.365Z,29.90
2022-08-08T07:51:44.734Z,29.70
2022-08-08T07:54:10.870Z,29.70
2022-08-08T07:56:50.128Z,29.70
2022-08-08T07:59:20.302Z,29.30
2022-08-08T08:02:35.201Z,29.20
2022-08-08T08:04:52.395Z,29.20
2022-08-08T08:07:31.870Z,29.40
2022-08-08T08:10:12.817Z,29.60
2022-08-08T08:13:20.477Z,29.80
2022-08-08T08:16:06.321Z,29.80
2022-08-08T08:18:55.507Z,29.70
2022-08-08T08:21:44.242Z,29.70
2022-08-08T08:24:30.942Z,29.60
2022-08-08T08:27:02.963Z,29.70
2022-08-08T08:29:31.278Z,29.90
2022-08-08T08:32:03.164Z,29.80
2022-08-08T08:34:33.738Z,29.90
2022-08-08T08:37:03.522Z,29.70
2022-08-08T08:39:59.522Z,29.60
2022-08-08T08:42:31.936Z,29.60
2022-08-08T08:45:21.161Z,29.60
2022-08-08T08:47:58.346Z,29.90
2022-08-08T08:50:33.665Z,29.70
2022-08-08T08:53:27.712Z,29.60
2022-08-08T08:56:02.014Z,29.60
2022-08-08T08:58:38.021Z,29.60
2022-08-08T09:01:09.885Z,29.70
2022-08-08T09:03:51.078Z,29.60
2022-08-08T09:06:33.694Z,29.80
2022-08-08T09:09:26.111Z,29.90
2022-08-08T09:12:10.948Z,29.90
2022-08-08T09:14:44.951Z,29.70
2022-08-08T09:17:18.749Z,29.70
2022-08-08T09:22:00.131Z,30.00
2022-08-08T09:22:36.142Z,30.00
2022-08-08T09:25:08.860Z,30.00
2022-08-08T09:27:57.426Z,30.30
2022-08-08T09:30:29.683Z,30.50
2022-08-08T09:33:11.828Z,30.60
2022-08-08T09:35:49.595Z,30.40
2022-08-08T09:38:53.462Z,30.30
2022-08-08T09:42:15.085Z,30.30
2022-08-08T09:45:20.638Z,30.10
2022-08-08T09:48:04.506Z,30.20
2022-08-08T09:50:43.967Z,30.50
2022-08-08T09:53:31.678Z,30.60
2022-08-08T09:56:11.626Z,30.70
2022-08-08T09:58:57.684Z,30.70
2022-08-08T10:01:59.028Z,30.40
2022-08-08T10:04:35.622Z,30.40
2022-08-08T10:07:07.489Z,30.70
2022-08-08T10:10:00.248Z,31.10
2022-08-08T10:12:53.947Z,31.50
2022-08-08T10:15:27.295Z,31.50
2022-08-08T10:18:11.717Z,31.90
2022-08-08T10:20:57.327Z,32.10
2022-08-08T10:23:58.935Z,32.40
2022-08-08T10:26:30.732Z,32.20
2022-08-08T10:29:20.852Z,32.10
2022-08-08T10:32:16.662Z,32.20
2022-08-08T10:35:01.086Z,32.20
2022-08-08T10:37:34.553Z,32.40
2022-08-08T10:40:23.274Z,33.00
2022-08-08T10:43:01.031Z,33.10
2022-08-08T10:45:29.646Z,33.00
2022-08-08T10:48:11.465Z,32.60
2022-08-08T10:50:39.894Z,33.10
2022-08-08T10:53:12.908Z,33.00
2022-08-08T10:55:46.514Z,32.70
2022-08-08T10:58:15.763Z,32.40
2022-08-08T11:00:48.608Z,33.10
2022-08-08T11:03:52.300Z,33.30
2022-08-08T11:06:16.040Z,33.50
2022-08-08T11:08:53.298Z,33.50
2022-08-08T11:11:32.326Z,33.30
2022-08-08T11:14:12.394Z,33.30
2022-08-08T11:16:46.779Z,33.40
2022-08-08T11:19:17.196Z,33.00
2022-08-08T11:21:55.655Z,33.00
2022-08-08T11:24:25.658Z,33.00
2022-08-08T11:26:57.160Z,32.60
2022-08-08T11:29:41.878Z,32.40
2022-08-08T11:32:14.962Z,32.10
2022-08-08T11:35:23.335Z,32.30
2022-08-08T11:38:36.543Z,32.20
2022-08-08T11:40:31.618Z,32.30
2022-08-08T11:43:00.623Z,32.30
2022-08-08T11:45:28.127Z,32.30
2022-08-08T11:48:04.541Z,32.60
2022-08-08T11:50:33.734Z,32.80
2022-08-08T11:53:06.022Z,32.80
2022-08-08T11:55:36.350Z,32.50
2022-08-08T11:58:15.098Z,32.50
2022-08-08T12:00:47.045Z,32.60
2022-08-08T12:03:21.449Z,32.70
2022-08-08T12:05:49.301Z,32.80
2022-08-08T12:08:17.557Z,32.70
2022-08-08T12:10:50.114Z,32.80
2022-08-08T12:13:38.162Z,32.90
2022-08-08T12:16:18.004Z,33.20
2022-08-08T12:18:50.071Z,33.50
2022-08-08T12:22:00.610Z,33.20
2022-08-08T12:24:30.982Z,33.10
2022-08-08T12:26:58.690Z,32.80
2022-08-08T12:29:40.042Z,32.70
2022-08-08T12:32:16.843Z,32.40
2022-08-08T12:35:00.914Z,32.80
2022-08-08T12:37:41.334Z,33.30
2022-08-08T12:40:22.979Z,33.70
2022-08-08T12:42:51.735Z,33.90
2022-08-08T12:45:53.472Z,33.90
2022-08-08T12:48:37.268Z,33.70
2022-08-08T12:51:07.881Z,33.90
2022-08-08T12:53:57.491Z,33.40
2022-08-08T12:56:37.920Z,33.20
2022-08-08T12:59:15.290Z,33.10
2022-08-08T13:01:49.068Z,33.00
2022-08-08T13:04:30.464Z,33.20
2022-08-08T13:06:57.346Z,33.50
2022-08-08T13:09:43.239Z,33.50
2022-08-08T13:12:30.170Z,33.40
2022-08-08T13:15:00.576Z,33.40
2022-08-08T13:18:09.181Z,33.30
2022-08-08T13:20:19.938Z,33.30
2022-08-08T13:22:47.788Z,33.50
2022-08-08T13:25:22.325Z,33.40
2022-08-08T13:27:54.735Z,32.80
2022-08-08T13:30:26.495Z,32.90
2022-08-08T13:33:01.277Z,32.90
2022-08-08T13:35:38.320Z,33.10
2022-08-08T13:38:08.546Z,33.40
2022-08-08T13:40:44.628Z,33.50
2022-08-08T13:43:16.257Z,33.90
2022-08-08T13:45:47.575Z,33.80
2022-08-08T13:48:19.542Z,33.70
2022-08-08T13:50:52.479Z,33.60
2022-08-08T13:53:34.375Z,33.60
2022-08-08T13:56:11.405Z,33.70
2022-08-08T13:58:57.776Z,33.60
2022-08-08T14:01:32.823Z,33.60
2022-08-08T14:04:24.333Z,33.50
2022-08-08T14:07:01.212Z,33.70
2022-08-08T14:10:04.369Z,33.60
2022-08-08T14:12:29.395Z,33.30
2022-08-08T14:14:56.612Z,33.50
2022-08-08T14:17:57.446Z,33.50
2022-08-08T14:20:15.462Z,33.40
2022-08-08T14:24:04.077Z,33.50
2022-08-08T14:26:27.999Z,33.10
2022-08-08T14:28:58.205Z,32.90
2022-08-08T14:32:06.029Z,33.00
2022-08-08T14:34:22.854Z,32.80
2022-08-08T14:36:51.797Z,32.80
2022-08-08T14:39:25.013Z,32.70
2022-08-08T14:42:09.606Z,32.60
2022-08-08T14:44:39.591Z,32.40
2022-08-08T14:47:17.422Z,32.50
2022-08-08T14:50:05.934Z,32.40
2022-08-08T14:52:40.799Z,32.40
2022-08-08T14:55:10.548Z,32.30
2022-08-08T14:58:06.677Z,32.40
2022-08-08T15:00:27.956Z,32.30
2022-08-08T15:02:58.935Z,32.50
2022-08-08T15:05:34.192Z,32.60
2022-08-08T15:08:21.965Z,32.30
2022-08-08T15:10:50.068Z,32.20
2022-08-08T15:13:17.660Z,32.00
2022-08-08T15:16:01.647Z,32.00
2022-08-08T15:18:30.317Z,32.00
2022-08-08T15:20:57.347Z,32.00
2022-08-08T15:23:25.645Z,32.10
2022-08-08T15:26:00.270Z,32.00
2022-08-08T15:28:33.222Z,32.30
2022-08-08T15:31:01.842Z,32.10
2022-08-08T15:33:38.750Z,32.00
2022-08-08T15:36:18.679Z,32.00
2022-08-08T15:38:50.267Z,32.40
2022-08-08T15:41:17.849Z,32.40
2022-08-08T15:44:00.744Z,32.30
2022-08-08T15:46:34.836Z,32.40
2022-08-08T15:49:04.050Z,32.30
2022-08-08T15:51:33.738Z,32.20
2022-08-08T15:54:01.285Z,32.20
2022-08-08T15:56:28.291Z,32.20
2022-08-08T15:58:55.235Z,32.00
2022-08-08T16:01:22.692Z,32.00
2022-08-08T16:03:51.875Z,31.80
2022-08-08T16:06:28.351Z,31.70
2022-08-08T16:13:00.173Z,31.60
2022-08-08T16:13:05.367Z,31.50
2022-08-08T16:14:35.101Z,31.50
2022-08-08T16:17:05.646Z,31.60
2022-08-08T16:19:56.803Z,31.60
2022-08-08T16:22:30.609Z,31.70
2022-08-08T16:24:58.384Z,31.70
2022-08-08T16:27:25.263Z,31.80
2022-08-08T16:30:08.826Z,31.80
2022-08-08T16:32:41.197Z,31.80
2022-08-08T16:35:08.661Z,31.70
2022-08-08T16:37:35.908Z,31.70
2022-08-08T16:40:04.179Z,31.70
2022-08-08T16:42:34.829Z,31.70
2022-08-08T16:45:11.573Z,31.80
2022-08-08T16:47:53.593Z,31.70
2022-08-08T16:50:20.499Z,31.60
2022-08-08T16:55:03.236Z,31.60
2022-08-08T16:55:53.904Z,31.60
2022-08-08T16:58:25.687Z,31.60
2022-08-08T17:00:55.090Z,31.50
2022-08-08T17:03:25.516Z,31.40
2022-08-08T17:06:36.522Z,31.50
2022-08-08T17:08:57.248Z,31.50
2022-08-08T17:11:28.479Z,31.60
2022-08-08T17:14:17.704Z,31.70
2022-08-08T17:16:47.129Z,31.70
2022-08-08T17:19:25.060Z,31.80
2022-08-08T17:21:52.201Z,31.80
2022-08-08T17:24:27.692Z,31.70
2022-08-08T17:26:58.050Z,31.70
2022-08-08T17:29:27.989Z,31.70
2022-08-08T17:31:57.491Z,31.50
2022-08-08T17:34:49.709Z,31.40
2022-08-08T17:37:13.622Z,31.30
2022-08-08T17:40:04.785Z,31.20
2022-08-08T17:42:28.073Z,31.10
2022-08-08T17:44:57.503Z,31.10
2022-08-08T17:47:27.576Z,31.00
2022-08-08T17:50:01.005Z,30.90
2022-08-08T17:52:33.353Z,30.80
2022-08-08T17:55:05.123Z,30.60
2022-08-08T17:57:35.315Z,30.50
2022-08-08T18:00:05.128Z,30.40
2022-08-08T18:02:40.497Z,30.20
2022-08-08T18:05:22.958Z,30.10
2022-08-08T18:08:24.197Z,30.00
2022-08-08T18:10:39.005Z,29.80
2022-08-08T18:13:07.578Z,29.70
2022-08-08T18:15:35.989Z,29.60
2022-08-08T18:18:28.336Z,29.50
2022-08-08T18:20:59.135Z,29.40
2022-08-08T18:23:26.868Z,29.50
2022-08-08T18:25:53.815Z,29.40
2022-08-08T18:28:23.580Z,29.30
2022-08-08T18:30:52.693Z,29.20
2022-08-08T18:33:36.725Z,29.10
2022-08-08T18:36:11.529Z,29.10
2022-08-08T18:38:50.123Z,29.10
2022-08-08T18:41:17.177Z,29.00
2022-08-08T18:43:46.190Z,29.00
2022-08-08T18:46:55.738Z,28.90
2022-08-08T18:49:00.674Z,28.80
2022-08-08T18:51:52.425Z,28.70
2022-08-08T18:54:22.379Z,28.60
2022-08-08T18:56:53.857Z,28.50
2022-08-08T18:59:20.857Z,28.40
2022-08-08T19:02:26.610Z,28.20
2022-08-08T19:04:37.720Z,28.00
2022-08-08T19:07:04.650Z,27.80
2022-08-08T19:09:49.489Z,27.80
2022-08-08T19:12:19.140Z,27.70
2022-08-08T19:14:46.633Z,27.60
2022-08-08T19:17:28.816Z,27.60
2022-08-08T19:20:02.643Z,27.50
2022-08-08T19:22:30.127Z,27.60
2022-08-08T19:25:55.949Z,27.50
2022-08-08T19:27:55.725Z,27.50
2022-08-08T19:30:24.440Z,27.40
2022-08-08T19:32:53.842Z,27.40
2022-08-08T19:35:44.302Z,27.40
2022-08-08T19:38:16.470Z,27.30
2022-08-08T19:40:45.009Z,27.30
2022-08-08T19:43:12.245Z,27.20
2022-08-08T19:45:59.425Z,27.20
2022-08-08T19:48:29.299Z,27.20
2022-08-08T19:50:59.189Z,27.10
2022-08-08T19:53:53.466Z,27.10
2022-08-08T19:56:16.413Z,27.00
2022-08-08T19:58:54.791Z,27.00
2022-08-08T20:01:31.610Z,26.90
2022-08-08T20:04:08.885Z,26.70
2022-08-08T20:06:36.523Z,26.70
2022-08-08T20:09:04.427Z,26.70
2022-08-08T20:11:43.040Z,26.70
2022-08-08T20:14:33.005Z,26.60
2022-08-08T20:16:59.553Z,26.60
2022-08-08T20:19:34.659Z,26.50
2022-08-08T20:22:13.201Z,26.50
2022-08-08T20:24:47.966Z,26.50
2022-08-08T20:27:20.495Z,26.40
2022-08-08T20:30:00.666Z,26.40
2022-08-08T20:32:29.772Z,26.40
2022-08-08T20:35:01.461Z,26.40
2022-08-08T20:37:37.021Z,26.40
2022-08-08T20:40:17.992Z,26.40
2022-08-08T20:43:00.941Z,26.40
2022-08-08T20:45:54.990Z,26.40
2022-08-08T20:48:21.126Z,26.50
2022-08-08T20:50:53.380Z,26.90
2022-08-08T20:53:59.288Z,27.20
2022-08-08T20:56:09.941Z,27.40
2022-08-08T20:58:44.397Z,27.50
2022-08-08T21:01:19.427Z,27.50
2022-08-08T21:03:55.987Z,27.50
2022-08-08T21:06:52.935Z,27.50
2022-08-08T21:09:16.139Z,27.50
2022-08-08T21:11:51.302Z,27.60
2022-08-08T21:14:33.369Z,27.60
2022-08-08T21:17:06.317Z,27.60
2022-08-08T21:19:45.869Z,27.50
2022-08-08T21:22:14.065Z,27.50
2022-08-08T21:24:52.175Z,27.60
2022-08-08T21:28:06.723Z,27.50
2022-08-08T21:30:19.144Z,27.50
2022-08-08T21:32:51.711Z,27.40
2022-08-08T21:36:13.796Z,27.50
2022-08-08T21:38:17.095Z,27.40
2022-08-08T21:40:54.755Z,27.30
2022-08-08T21:43:24.676Z,27.20
2022-08-08T21:48:06.844Z,27.20
2022-08-08T21:48:41.554Z,27.20
2022-08-08T21:51:13.325Z,27.10
2022-08-08T21:54:30.979Z,27.20
2022-08-08T21:56:40.144Z,27.20
2022-08-08T21:59:09.800Z,27.20
2022-08-08T22:01:40.470Z,27.10
2022-08-08T22:04:11.046Z,27.20
2022-08-08T22:06:40.532Z,27.10
2022-08-08T22:09:09.665Z,27.10
2022-08-08T22:12:02.624Z,27.10
2022-08-08T22:14:26.810Z,27.10
2022-08-08T22:16:56.257Z,27.10
2022-08-08T22:19:24.322Z,27.00
2022-08-08T22:21:55.990Z,27.00
2022-08-08T22:24:28.158Z,27.00
2022-08-08T22:27:02.671Z,26.90
2022-08-08T22:29:59.450Z,26.90
2022-08-08T22:32:19.102Z,26.90
2022-08-08T22:34:50.751Z,26.80
2022-08-08T22:37:49.473Z,26.70
2022-08-08T22:40:11.758Z,26.80
2022-08-08T22:42:47.096Z,26.70
2022-08-08T22:45:14.620Z,26.70
2022-08-08T22:47:49.019Z,26.70
2022-08-08T22:50:25.528Z,26.70
2022-08-08T22:54:27.662Z,26.60
2022-08-08T22:55:58.101Z,26.60
2022-08-08T22:58:34.648Z,26.50
2022-08-08T23:01:16.731Z,26.50
2022-08-08T23:03:55.838Z,26.50
2022-08-08T23:06:27.102Z,26.50
2022-08-08T23:09:00.040Z,26.50
2022-08-08T23:12:17.866Z,26.50
2022-08-08T23:14:21.126Z,26.50
2022-08-08T23:16:54.723Z,26.50
2022-08-08T23:19:32.381Z,26.50
2022-08-08T23:22:04.099Z,26.50
2022-08-08T23:24:36.095Z,26.50
2022-08-08T23:27:07.997Z,26.50
2022-08-08T23:29:36.165Z,26.50
2022-08-08T23:32:05.431Z,26.50
2022-08-08T23:34:33.218Z,26.50
2022-08-08T23:37:02.665Z,26.50
2022-08-08T23:39:42.100Z,26.50
2022-08-08T23:42:16.748Z,26.50
2022-08-08T23:44:45.258Z,26.50
2022-08-08T23:49:04.475Z,26.50
2022-08-08T23:50:02.955Z,26.50
2022-08-08T23:52:33.333Z,26.40
2022-08-08T23:55:13.891Z,26.40
2022-08-08T23:57:52.286Z,26.40
